FD08 weather

Antiquers Aerodrome
Delray Beach, Florida, United States

Public forecast

Using degrees Fahrenheit for public forecast. Weather courtesy of forecast.io.

METAR (pilot weather report)

Closest report is Boca Raton Airport, 5.7 nm (10.5 km) SSE. Retrieved 2019/06/16 12:47 UTC (1 hour ago):

KBCT 161247Z 13012KT 10SM BKN030 26/22 A3004

TAF (pilot weather forecast)

Closest forecast is Palm Beach International Airport, 13.4 nm (24.8 km) NNE. Retrieved 2019/06/16 12:48 UTC (1 hour ago):

TAF KPBI 161141Z 1612/1712 16008KT P6SM SHRA VCTS SCT025CB BKN080 BKN200 FM161500 13011KT P6SM VCTS SCT025CB BKN050 BKN200 FM170100 11006KT P6SM SCT025 SCT070 BKN200